sensor_id;sensor_type;location;lat;lon;timestamp;P1;durP1;ratioP1;P2;durP2;ratioP2
47625;SDS011;33342;45.574;9.252;2023-05-15T00:02:19;5.40;;;3.58;;
47625;SDS011;33342;45.574;9.252;2023-05-15T00:04:46;5.65;;;3.67;;
47625;SDS011;33342;45.574;9.252;2023-05-15T00:07:13;6.90;;;4.18;;
47625;SDS011;33342;45.574;9.252;2023-05-15T00:09:40;5.90;;;4.03;;
47625;SDS011;33342;45.574;9.252;2023-05-15T00:12:07;6.30;;;3.58;;
47625;SDS011;33342;45.574;9.252;2023-05-15T00:14:34;6.72;;;4.15;;
47625;SDS011;33342;45.574;9.252;2023-05-15T00:17:01;6.55;;;4.40;;
47625;SDS011;33342;45.574;9.252;2023-05-15T00:19:28;8.20;;;4.53;;
47625;SDS011;33342;45.574;9.252;2023-05-15T00:21:55;6.97;;;3.10;;
47625;SDS011;33342;45.574;9.252;2023-05-15T00:24:22;5.55;;;3.00;;
47625;SDS011;33342;45.574;9.252;2023-05-15T00:26:49;5.80;;;3.05;;
47625;SDS011;33342;45.574;9.252;2023-05-15T00:29:16;7.28;;;4.80;;
47625;SDS011;33342;45.574;9.252;2023-05-15T00:31:43;8.45;;;3.47;;
47625;SDS011;33342;45.574;9.252;2023-05-15T00:34:10;9.30;;;4.82;;
47625;SDS011;33342;45.574;9.252;2023-05-15T00:36:37;7.28;;;5.07;;
47625;SDS011;33342;45.574;9.252;2023-05-15T00:39:04;6.82;;;4.95;;
47625;SDS011;33342;45.574;9.252;2023-05-15T00:41:31;7.32;;;3.17;;
47625;SDS011;33342;45.574;9.252;2023-05-15T00:44:00;9.13;;;5.38;;
47625;SDS011;33342;45.574;9.252;2023-05-15T00:46:31;5.57;;;3.63;;
47625;SDS011;33342;45.574;9.252;2023-05-15T00:49:01;9.15;;;5.13;;
47625;SDS011;33342;45.574;9.252;2023-05-15T00:51:30;8.10;;;5.32;;
47625;SDS011;33342;45.574;9.252;2023-05-15T00:53:57;7.60;;;4.20;;
47625;SDS011;33342;45.574;9.252;2023-05-15T00:56:25;8.18;;;5.53;;
47625;SDS011;33342;45.574;9.252;2023-05-15T00:58:55;6.82;;;4.97;;
47625;SDS011;33342;45.574;9.252;2023-05-15T01:01:25;8.30;;;5.50;;
47625;SDS011;33342;45.574;9.252;2023-05-15T01:03:52;8.55;;;5.80;;
47625;SDS011;33342;45.574;9.252;2023-05-15T01:06:19;7.55;;;4.32;;
47625;SDS011;33342;45.574;9.252;2023-05-15T01:08:46;7.72;;;5.80;;
47625;SDS011;33342;45.574;9.252;2023-05-15T01:11:15;6.38;;;3.83;;
47625;SDS011;33342;45.574;9.252;2023-05-15T01:13:44;7.65;;;5.90;;
47625;SDS011;33342;45.574;9.252;2023-05-15T01:16:11;6.50;;;4.38;;
47625;SDS011;33342;45.574;9.252;2023-05-15T01:18:38;7.55;;;5.63;;
47625;SDS011;33342;45.574;9.252;2023-05-15T01:28:45;7.93;;;4.38;;
47625;SDS011;33342;45.574;9.252;2023-05-15T01:31:18;9.35;;;6.25;;
47625;SDS011;33342;45.574;9.252;2023-05-15T01:33:50;8.98;;;4.07;;
47625;SDS011;33342;45.574;9.252;2023-05-15T01:36:26;8.48;;;6.72;;
47625;SDS011;33342;45.574;9.252;2023-05-15T01:39:02;7.70;;;4.85;;
47625;SDS011;33342;45.574;9.252;2023-05-15T01:44:10;9.25;;;6.30;;
47625;SDS011;33342;45.574;9.252;2023-05-15T01:46:43;9.02;;;5.13;;
47625;SDS011;33342;45.574;9.252;2023-05-15T01:49:12;9.35;;;5.40;;
47625;SDS011;33342;45.574;9.252;2023-05-15T01:51:41;8.93;;;5.50;;
47625;SDS011;33342;45.574;9.252;2023-05-15T01:54:11;9.68;;;5.53;;
47625;SDS011;33342;45.574;9.252;2023-05-15T01:56:39;8.30;;;5.40;;
47625;SDS011;33342;45.574;9.252;2023-05-15T01:59:10;12.82;;;5.38;;
47625;SDS011;33342;45.574;9.252;2023-05-15T02:01:39;12.60;;;8.10;;
47625;SDS011;33342;45.574;9.252;2023-05-15T02:04:08;11.90;;;8.23;;
47625;SDS011;33342;45.574;9.252;2023-05-15T02:06:36;10.75;;;8.25;;
47625;SDS011;33342;45.574;9.252;2023-05-15T02:09:04;11.15;;;8.02;;
47625;SDS011;33342;45.574;9.252;2023-05-15T02:11:32;10.52;;;5.85;;
47625;SDS011;33342;45.574;9.252;2023-05-15T02:14:01;9.40;;;6.13;;
47625;SDS011;33342;45.574;9.252;2023-05-15T02:16:30;8.57;;;6.18;;
47625;SDS011;33342;45.574;9.252;2023-05-15T02:18:57;13.50;;;9.05;;
47625;SDS011;33342;45.574;9.252;2023-05-15T02:21:24;9.70;;;6.22;;
47625;SDS011;33342;45.574;9.252;2023-05-15T02:23:51;9.73;;;5.57;;
47625;SDS011;33342;45.574;9.252;2023-05-15T02:26:30;10.07;;;8.48;;
47625;SDS011;33342;45.574;9.252;2023-05-15T02:29:47;13.57;;;9.67;;
47625;SDS011;33342;45.574;9.252;2023-05-15T02:37:48;12.45;;;10.93;;
47625;SDS011;33342;45.574;9.252;2023-05-15T02:40:22;9.85;;;6.25;;
47625;SDS011;33342;45.574;9.252;2023-05-15T02:42:51;11.25;;;7.07;;
47625;SDS011;33342;45.574;9.252;2023-05-15T02:45:20;10.13;;;5.38;;
47625;SDS011;33342;45.574;9.252;2023-05-15T02:47:50;11.95;;;9.30;;
47625;SDS011;33342;45.574;9.252;2023-05-15T02:50:18;12.73;;;10.75;;
47625;SDS011;33342;45.574;9.252;2023-05-15T02:52:45;12.43;;;7.55;;
47625;SDS011;33342;45.574;9.252;2023-05-15T02:55:12;14.35;;;11.77;;
47625;SDS011;33342;45.574;9.252;2023-05-15T02:57:39;15.55;;;7.65;;
47625;SDS011;33342;45.574;9.252;2023-05-15T03:00:06;12.35;;;7.95;;
47625;SDS011;33342;45.574;9.252;2023-05-15T03:02:37;13.38;;;11.35;;
47625;SDS011;33342;45.574;9.252;2023-05-15T03:05:04;12.52;;;8.35;;
47625;SDS011;33342;45.574;9.252;2023-05-15T03:07:32;11.43;;;7.47;;
47625;SDS011;33342;45.574;9.252;2023-05-15T03:09:59;10.80;;;6.82;;
47625;SDS011;33342;45.574;9.252;2023-05-15T03:12:25;13.93;;;10.80;;
47625;SDS011;33342;45.574;9.252;2023-05-15T03:14:53;12.75;;;8.55;;
47625;SDS011;33342;45.574;9.252;2023-05-15T03:17:19;12.38;;;7.80;;
47625;SDS011;33342;45.574;9.252;2023-05-15T03:19:47;13.80;;;12.30;;
47625;SDS011;33342;45.574;9.252;2023-05-15T03:22:13;15.13;;;7.53;;
47625;SDS011;33342;45.574;9.252;2023-05-15T03:24:40;11.20;;;7.25;;
47625;SDS011;33342;45.574;9.252;2023-05-15T03:27:07;10.00;;;6.95;;
47625;SDS011;33342;45.574;9.252;2023-05-15T03:29:34;11.73;;;7.25;;
47625;SDS011;33342;45.574;9.252;2023-05-15T03:32:01;11.48;;;7.38;;
47625;SDS011;33342;45.574;9.252;2023-05-15T03:34:28;11.25;;;7.38;;
47625;SDS011;33342;45.574;9.252;2023-05-15T03:36:55;11.40;;;7.45;;
47625;SDS011;33342;45.574;9.252;2023-05-15T03:39:22;10.93;;;7.43;;
47625;SDS011;33342;45.574;9.252;2023-05-15T03:41:49;11.30;;;7.75;;
47625;SDS011;33342;45.574;9.252;2023-05-15T03:44:16;13.27;;;11.50;;
47625;SDS011;33342;45.574;9.252;2023-05-15T03:46:45;14.10;;;8.48;;
47625;SDS011;33342;45.574;9.252;2023-05-15T03:49:12;13.20;;;7.20;;
47625;SDS011;33342;45.574;9.252;2023-05-15T03:51:39;12.27;;;7.97;;
47625;SDS011;33342;45.574;9.252;2023-05-15T03:54:06;14.00;;;12.07;;
47625;SDS011;33342;45.574;9.252;2023-05-15T03:56:33;14.43;;;12.40;;
47625;SDS011;33342;45.574;9.252;2023-05-15T03:59:01;11.20;;;7.43;;
47625;SDS011;33342;45.574;9.252;2023-05-15T04:01:28;13.25;;;8.13;;
47625;SDS011;33342;45.574;9.252;2023-05-15T04:03:55;12.52;;;7.50;;
47625;SDS011;33342;45.574;9.252;2023-05-15T04:06:21;12.60;;;8.38;;
47625;SDS011;33342;45.574;9.252;2023-05-15T04:08:48;12.57;;;8.05;;
47625;SDS011;33342;45.574;9.252;2023-05-15T04:11:15;15.25;;;8.15;;
47625;SDS011;33342;45.574;9.252;2023-05-15T04:13:42;12.32;;;7.63;;
47625;SDS011;33342;45.574;9.252;2023-05-15T04:16:09;13.60;;;8.07;;
47625;SDS011;33342;45.574;9.252;2023-05-15T04:18:36;16.70;;;12.63;;
47625;SDS011;33342;45.574;9.252;2023-05-15T04:21:04;12.60;;;6.85;;
47625;SDS011;33342;45.574;9.252;2023-05-15T04:23:31;13.68;;;7.28;;
47625;SDS011;33342;45.574;9.252;2023-05-15T04:25:58;12.85;;;7.97;;
47625;SDS011;33342;45.574;9.252;2023-05-15T04:28:25;11.50;;;7.15;;
47625;SDS011;33342;45.574;9.252;2023-05-15T04:30:54;12.80;;;7.22;;
47625;SDS011;33342;45.574;9.252;2023-05-15T04:33:21;11.57;;;7.35;;
47625;SDS011;33342;45.574;9.252;2023-05-15T04:35:48;13.50;;;7.00;;
47625;SDS011;33342;45.574;9.252;2023-05-15T04:38:14;11.32;;;7.25;;
47625;SDS011;33342;45.574;9.252;2023-05-15T04:40:42;14.60;;;7.45;;
47625;SDS011;33342;45.574;9.252;2023-05-15T04:43:09;14.55;;;11.40;;
47625;SDS011;33342;45.574;9.252;2023-05-15T04:45:36;14.88;;;11.90;;
47625;SDS011;33342;45.574;9.252;2023-05-15T04:48:03;14.32;;;8.23;;
47625;SDS011;33342;45.574;9.252;2023-05-15T04:50:31;12.27;;;7.93;;
47625;SDS011;33342;45.574;9.252;2023-05-15T04:52:58;13.00;;;8.38;;
47625;SDS011;33342;45.574;9.252;2023-05-15T04:55:24;14.13;;;7.65;;
47625;SDS011;33342;45.574;9.252;2023-05-15T04:57:52;16.00;;;12.38;;
47625;SDS011;33342;45.574;9.252;2023-05-15T05:00:19;14.73;;;8.45;;
47625;SDS011;33342;45.574;9.252;2023-05-15T05:02:46;13.20;;;11.52;;
47625;SDS011;33342;45.574;9.252;2023-05-15T05:05:13;12.77;;;8.23;;
47625;SDS011;33342;45.574;9.252;2023-05-15T05:07:40;12.35;;;8.00;;
47625;SDS011;33342;45.574;9.252;2023-05-15T05:10:09;14.75;;;11.70;;
47625;SDS011;33342;45.574;9.252;2023-05-15T05:12:36;12.85;;;8.52;;
47625;SDS011;33342;45.574;9.252;2023-05-15T05:15:03;12.88;;;8.30;;
47625;SDS011;33342;45.574;9.252;2023-05-15T05:17:30;17.38;;;9.25;;
47625;SDS011;33342;45.574;9.252;2023-05-15T05:19:57;13.50;;;7.68;;
47625;SDS011;33342;45.574;9.252;2023-05-15T05:22:24;16.10;;;12.95;;
47625;SDS011;33342;45.574;9.252;2023-05-15T05:24:51;14.82;;;8.75;;
47625;SDS011;33342;45.574;9.252;2023-05-15T05:27:18;11.65;;;7.97;;
47625;SDS011;33342;45.574;9.252;2023-05-15T05:29:45;13.07;;;8.77;;
47625;SDS011;33342;45.574;9.252;2023-05-15T05:32:12;12.95;;;7.95;;
47625;SDS011;33342;45.574;9.252;2023-05-15T05:34:39;12.70;;;7.55;;
47625;SDS011;33342;45.574;9.252;2023-05-15T05:37:06;15.65;;;9.20;;
47625;SDS011;33342;45.574;9.252;2023-05-15T05:39:33;16.55;;;12.65;;
47625;SDS011;33342;45.574;9.252;2023-05-15T05:42:00;12.40;;;7.85;;
47625;SDS011;33342;45.574;9.252;2023-05-15T05:44:27;15.45;;;7.72;;
47625;SDS011;33342;45.574;9.252;2023-05-15T05:46:54;14.50;;;8.15;;
47625;SDS011;33342;45.574;9.252;2023-05-15T05:49:21;15.88;;;8.65;;
47625;SDS011;33342;45.574;9.252;2023-05-15T05:51:48;11.98;;;7.32;;
47625;SDS011;33342;45.574;9.252;2023-05-15T05:54:15;12.95;;;7.97;;
47625;SDS011;33342;45.574;9.252;2023-05-15T05:56:43;14.95;;;11.18;;
47625;SDS011;33342;45.574;9.252;2023-05-15T05:59:11;12.63;;;8.70;;
47625;SDS011;33342;45.574;9.252;2023-05-15T06:01:38;14.88;;;11.82;;
47625;SDS011;33342;45.574;9.252;2023-05-15T06:04:05;15.10;;;8.80;;
47625;SDS011;33342;45.574;9.252;2023-05-15T06:06:32;14.85;;;8.88;;
47625;SDS011;33342;45.574;9.252;2023-05-15T06:09:00;13.57;;;8.40;;
47625;SDS011;33342;45.574;9.252;2023-05-15T06:11:27;13.40;;;8.13;;
47625;SDS011;33342;45.574;9.252;2023-05-15T06:13:54;14.23;;;8.65;;
47625;SDS011;33342;45.574;9.252;2023-05-15T06:16:22;13.30;;;8.05;;
47625;SDS011;33342;45.574;9.252;2023-05-15T06:18:49;14.88;;;8.10;;
47625;SDS011;33342;45.574;9.252;2023-05-15T06:21:16;13.00;;;7.00;;
47625;SDS011;33342;45.574;9.252;2023-05-15T06:23:43;11.88;;;9.05;;
47625;SDS011;33342;45.574;9.252;2023-05-15T06:26:11;11.38;;;9.00;;
47625;SDS011;33342;45.574;9.252;2023-05-15T06:28:38;12.48;;;6.40;;
47625;SDS011;33342;45.574;9.252;2023-05-15T06:31:05;9.93;;;7.82;;
47625;SDS011;33342;45.574;9.252;2023-05-15T06:33:32;9.50;;;5.30;;
47625;SDS011;33342;45.574;9.252;2023-05-15T06:35:59;9.05;;;6.68;;
47625;SDS011;33342;45.574;9.252;2023-05-15T06:38:26;9.50;;;5.53;;
47625;SDS011;33342;45.574;9.252;2023-05-15T06:40:53;10.77;;;5.55;;
47625;SDS011;33342;45.574;9.252;2023-05-15T06:43:20;10.07;;;5.40;;
47625;SDS011;33342;45.574;9.252;2023-05-15T06:45:47;9.60;;;6.80;;
47625;SDS011;33342;45.574;9.252;2023-05-15T06:48:15;8.68;;;4.82;;
47625;SDS011;33342;45.574;9.252;2023-05-15T06:50:42;7.82;;;4.15;;
47625;SDS011;33342;45.574;9.252;2023-05-15T06:53:09;9.10;;;5.07;;
47625;SDS011;33342;45.574;9.252;2023-05-15T06:55:38;10.07;;;5.10;;
47625;SDS011;33342;45.574;9.252;2023-05-15T06:58:05;10.35;;;7.60;;
47625;SDS011;33342;45.574;9.252;2023-05-15T07:00:32;10.05;;;6.75;;
47625;SDS011;33342;45.574;9.252;2023-05-15T07:02:59;10.70;;;6.03;;
47625;SDS011;33342;45.574;9.252;2023-05-15T07:05:26;8.20;;;5.63;;
47625;SDS011;33342;45.574;9.252;2023-05-15T07:07:53;8.25;;;5.43;;
47625;SDS011;33342;45.574;9.252;2023-05-15T07:10:20;8.75;;;4.35;;
47625;SDS011;33342;45.574;9.252;2023-05-15T07:12:47;7.90;;;4.60;;
47625;SDS011;33342;45.574;9.252;2023-05-15T07:15:14;6.55;;;3.72;;
47625;SDS011;33342;45.574;9.252;2023-05-15T07:17:42;7.15;;;4.35;;
47625;SDS011;33342;45.574;9.252;2023-05-15T07:20:10;10.93;;;6.40;;
47625;SDS011;33342;45.574;9.252;2023-05-15T07:22:37;16.48;;;6.20;;
47625;SDS011;33342;45.574;9.252;2023-05-15T07:25:21;8.30;;;5.13;;
47625;SDS011;33342;45.574;9.252;2023-05-15T07:27:49;8.25;;;5.97;;
47625;SDS011;33342;45.574;9.252;2023-05-15T07:30:16;7.38;;;5.10;;
47625;SDS011;33342;45.574;9.252;2023-05-15T07:32:43;9.90;;;6.75;;
47625;SDS011;33342;45.574;9.252;2023-05-15T07:35:10;8.68;;;5.50;;
47625;SDS011;33342;45.574;9.252;2023-05-15T07:37:37;10.43;;;4.35;;
47625;SDS011;33342;45.574;9.252;2023-05-15T07:40:04;9.82;;;6.07;;
47625;SDS011;33342;45.574;9.252;2023-05-15T07:42:32;8.73;;;6.00;;
47625;SDS011;33342;45.574;9.252;2023-05-15T07:44:59;7.95;;;5.53;;
47625;SDS011;33342;45.574;9.252;2023-05-15T07:47:26;9.05;;;5.72;;
47625;SDS011;33342;45.574;9.252;2023-05-15T07:49:54;8.82;;;5.90;;
47625;SDS011;33342;45.574;9.252;2023-05-15T07:52:21;8.80;;;4.28;;
47625;SDS011;33342;45.574;9.252;2023-05-15T07:54:48;9.18;;;5.68;;
47625;SDS011;33342;45.574;9.252;2023-05-15T07:57:15;9.52;;;5.13;;
47625;SDS011;33342;45.574;9.252;2023-05-15T07:59:42;9.80;;;6.82;;
47625;SDS011;33342;45.574;9.252;2023-05-15T08:02:09;10.75;;;4.25;;
47625;SDS011;33342;45.574;9.252;2023-05-15T08:04:36;10.98;;;6.50;;
47625;SDS011;33342;45.574;9.252;2023-05-15T08:07:03;8.55;;;6.25;;
47625;SDS011;33342;45.574;9.252;2023-05-15T08:09:31;8.07;;;5.85;;
47625;SDS011;33342;45.574;9.252;2023-05-15T08:12:14;10.40;;;6.80;;
47625;SDS011;33342;45.574;9.252;2023-05-15T08:14:43;10.98;;;6.43;;
47625;SDS011;33342;45.574;9.252;2023-05-15T08:17:10;9.15;;;6.53;;
47625;SDS011;33342;45.574;9.252;2023-05-15T08:19:37;9.57;;;6.68;;
47625;SDS011;33342;45.574;9.252;2023-05-15T08:22:04;9.63;;;6.80;;
47625;SDS011;33342;45.574;9.252;2023-05-15T08:24:31;8.20;;;5.65;;
47625;SDS011;33342;45.574;9.252;2023-05-15T08:26:58;9.02;;;5.22;;
47625;SDS011;33342;45.574;9.252;2023-05-15T08:29:25;8.88;;;6.57;;
47625;SDS011;33342;45.574;9.252;2023-05-15T08:31:52;10.55;;;7.45;;
47625;SDS011;33342;45.574;9.252;2023-05-15T08:34:19;10.32;;;6.97;;
47625;SDS011;33342;45.574;9.252;2023-05-15T08:36:46;9.70;;;7.03;;
47625;SDS011;33342;45.574;9.252;2023-05-15T08:39:13;9.35;;;6.85;;
47625;SDS011;33342;45.574;9.252;2023-05-15T08:44:30;8.45;;;6.82;;
47625;SDS011;33342;45.574;9.252;2023-05-15T08:46:58;9.05;;;6.35;;
47625;SDS011;33342;45.574;9.252;2023-05-15T08:49:30;9.70;;;7.20;;
47625;SDS011;33342;45.574;9.252;2023-05-15T08:54:29;7.13;;;5.85;;
47625;SDS011;33342;45.574;9.252;2023-05-15T08:56:56;9.70;;;4.57;;
47625;SDS011;33342;45.574;9.252;2023-05-15T08:59:24;8.95;;;6.63;;
47625;SDS011;33342;45.574;9.252;2023-05-15T09:01:51;9.32;;;6.72;;
47625;SDS011;33342;45.574;9.252;2023-05-15T09:04:19;9.98;;;7.07;;
47625;SDS011;33342;45.574;9.252;2023-05-15T09:06:46;8.73;;;5.43;;
47625;SDS011;33342;45.574;9.252;2023-05-15T09:09:13;8.73;;;6.15;;
47625;SDS011;33342;45.574;9.252;2023-05-15T09:11:44;9.07;;;6.88;;
47625;SDS011;33342;45.574;9.252;2023-05-15T09:14:13;11.55;;;6.55;;
47625;SDS011;33342;45.574;9.252;2023-05-15T09:16:40;9.95;;;6.25;;
47625;SDS011;33342;45.574;9.252;2023-05-15T09:19:07;8.45;;;5.75;;
47625;SDS011;33342;45.574;9.252;2023-05-15T09:21:35;7.47;;;5.35;;
47625;SDS011;33342;45.574;9.252;2023-05-15T09:24:15;9.65;;;5.53;;
47625;SDS011;33342;45.574;9.252;2023-05-15T09:27:01;9.10;;;6.25;;
47625;SDS011;33342;45.574;9.252;2023-05-15T09:29:32;8.85;;;6.75;;
47625;SDS011;33342;45.574;9.252;2023-05-15T09:32:04;7.45;;;5.35;;
47625;SDS011;33342;45.574;9.252;2023-05-15T09:34:34;8.57;;;4.80;;
47625;SDS011;33342;45.574;9.252;2023-05-15T09:37:03;7.55;;;5.65;;
47625;SDS011;33342;45.574;9.252;2023-05-15T09:39:32;10.13;;;4.57;;
47625;SDS011;33342;45.574;9.252;2023-05-15T09:42:05;7.45;;;4.25;;
47625;SDS011;33342;45.574;9.252;2023-05-15T09:44:34;10.02;;;5.78;;
47625;SDS011;33342;45.574;9.252;2023-05-15T09:47:05;9.10;;;5.18;;
47625;SDS011;33342;45.574;9.252;2023-05-15T09:49:33;8.82;;;4.93;;
47625;SDS011;33342;45.574;9.252;2023-05-15T09:52:00;6.93;;;4.75;;
47625;SDS011;33342;45.574;9.252;2023-05-15T09:54:27;8.43;;;5.47;;
47625;SDS011;33342;45.574;9.252;2023-05-15T09:56:55;9.18;;;5.68;;
47625;SDS011;33342;45.574;9.252;2023-05-15T09:59:32;8.27;;;5.05;;
47625;SDS011;33342;45.574;9.252;2023-05-15T10:01:59;8.70;;;5.47;;
47625;SDS011;33342;45.574;9.252;2023-05-15T10:04:26;7.57;;;4.88;;
47625;SDS011;33342;45.574;9.252;2023-05-15T10:07:01;8.05;;;5.75;;
47625;SDS011;33342;45.574;9.252;2023-05-15T10:09:31;8.90;;;6.20;;
47625;SDS011;33342;45.574;9.252;2023-05-15T10:11:58;8.30;;;5.30;;
47625;SDS011;33342;45.574;9.252;2023-05-15T10:14:25;9.55;;;5.70;;
47625;SDS011;33342;45.574;9.252;2023-05-15T10:16:54;9.77;;;5.57;;
47625;SDS011;33342;45.574;9.252;2023-05-15T10:19:22;8.88;;;5.78;;
47625;SDS011;33342;45.574;9.252;2023-05-15T10:21:52;7.55;;;5.53;;
47625;SDS011;33342;45.574;9.252;2023-05-15T10:24:21;9.90;;;6.05;;
47625;SDS011;33342;45.574;9.252;2023-05-15T10:26:51;9.30;;;5.85;;
47625;SDS011;33342;45.574;9.252;2023-05-15T10:29:21;10.77;;;6.63;;
47625;SDS011;33342;45.574;9.252;2023-05-15T10:31:52;9.07;;;6.90;;
47625;SDS011;33342;45.574;9.252;2023-05-15T10:34:19;8.45;;;6.13;;
47625;SDS011;33342;45.574;9.252;2023-05-15T10:36:46;8.98;;;5.60;;
47625;SDS011;33342;45.574;9.252;2023-05-15T10:39:15;9.45;;;6.10;;
47625;SDS011;33342;45.574;9.252;2023-05-15T10:41:43;8.85;;;6.05;;
47625;SDS011;33342;45.574;9.252;2023-05-15T10:44:11;9.77;;;6.35;;
47625;SDS011;33342;45.574;9.252;2023-05-15T10:46:41;9.35;;;6.28;;
47625;SDS011;33342;45.574;9.252;2023-05-15T10:49:08;8.57;;;6.05;;
47625;SDS011;33342;45.574;9.252;2023-05-15T10:51:35;8.88;;;6.05;;
47625;SDS011;33342;45.574;9.252;2023-05-15T10:54:03;13.50;;;6.90;;
47625;SDS011;33342;45.574;9.252;2023-05-15T10:56:33;10.30;;;6.22;;
47625;SDS011;33342;45.574;9.252;2023-05-15T10:59:06;9.63;;;5.45;;
47625;SDS011;33342;45.574;9.252;2023-05-15T11:01:36;9.35;;;6.90;;
47625;SDS011;33342;45.574;9.252;2023-05-15T11:04:05;8.07;;;6.15;;
47625;SDS011;33342;45.574;9.252;2023-05-15T11:06:33;8.85;;;6.80;;
47625;SDS011;33342;45.574;9.252;2023-05-15T11:14:18;9.18;;;7.72;;
47625;SDS011;33342;45.574;9.252;2023-05-15T11:21:57;9.38;;;6.90;;
47625;SDS011;33342;45.574;9.252;2023-05-15T11:24:28;10.07;;;7.82;;
47625;SDS011;33342;45.574;9.252;2023-05-15T11:27:00;9.18;;;6.90;;
47625;SDS011;33342;45.574;9.252;2023-05-15T11:29:29;8.15;;;6.93;;
47625;SDS011;33342;45.574;9.252;2023-05-15T11:31:56;8.32;;;6.07;;
47625;SDS011;33342;45.574;9.252;2023-05-15T11:34:28;7.97;;;5.72;;
47625;SDS011;33342;45.574;9.252;2023-05-15T11:36:59;7.05;;;5.10;;
47625;SDS011;33342;45.574;9.252;2023-05-15T11:39:27;7.43;;;5.00;;
47625;SDS011;33342;45.574;9.252;2023-05-15T11:41:54;8.38;;;5.13;;
47625;SDS011;33342;45.574;9.252;2023-05-15T11:44:23;8.70;;;6.25;;
47625;SDS011;33342;45.574;9.252;2023-05-15T11:46:50;6.90;;;5.47;;
47625;SDS011;33342;45.574;9.252;2023-05-15T11:49:18;7.30;;;5.10;;
47625;SDS011;33342;45.574;9.252;2023-05-15T11:51:46;6.82;;;5.22;;
47625;SDS011;33342;45.574;9.252;2023-05-15T11:54:14;7.25;;;4.55;;
47625;SDS011;33342;45.574;9.252;2023-05-15T11:56:42;7.50;;;5.40;;
47625;SDS011;33342;45.574;9.252;2023-05-15T11:59:13;11.27;;;8.63;;
47625;SDS011;33342;45.574;9.252;2023-05-15T12:01:41;7.80;;;5.57;;
47625;SDS011;33342;45.574;9.252;2023-05-15T12:04:16;7.97;;;5.50;;
47625;SDS011;33342;45.574;9.252;2023-05-15T12:06:44;8.00;;;5.53;;
47625;SDS011;33342;45.574;9.252;2023-05-15T12:09:15;6.95;;;5.68;;
47625;SDS011;33342;45.574;9.252;2023-05-15T12:11:51;8.77;;;5.40;;
47625;SDS011;33342;45.574;9.252;2023-05-15T12:14:25;7.60;;;6.20;;
47625;SDS011;33342;45.574;9.252;2023-05-15T12:17:02;8.35;;;6.00;;
47625;SDS011;33342;45.574;9.252;2023-05-15T12:19:30;7.65;;;5.90;;
47625;SDS011;33342;45.574;9.252;2023-05-15T12:21:58;7.18;;;5.88;;
47625;SDS011;33342;45.574;9.252;2023-05-15T12:24:25;7.97;;;4.88;;
47625;SDS011;33342;45.574;9.252;2023-05-15T12:26:52;7.00;;;4.72;;
47625;SDS011;33342;45.574;9.252;2023-05-15T12:29:22;6.68;;;4.10;;
47625;SDS011;33342;45.574;9.252;2023-05-15T12:31:50;5.63;;;3.75;;
47625;SDS011;33342;45.574;9.252;2023-05-15T12:34:19;7.18;;;4.47;;
47625;SDS011;33342;45.574;9.252;2023-05-15T12:36:47;7.75;;;4.70;;
47625;SDS011;33342;45.574;9.252;2023-05-15T12:39:14;6.40;;;4.57;;
47625;SDS011;33342;45.574;9.252;2023-05-15T12:41:41;8.30;;;4.25;;
47625;SDS011;33342;45.574;9.252;2023-05-15T12:44:15;6.07;;;3.13;;
47625;SDS011;33342;45.574;9.252;2023-05-15T12:46:44;5.97;;;4.20;;
47625;SDS011;33342;45.574;9.252;2023-05-15T12:49:11;6.93;;;4.50;;
47625;SDS011;33342;45.574;9.252;2023-05-15T12:51:42;6.10;;;3.20;;
47625;SDS011;33342;45.574;9.252;2023-05-15T12:54:22;6.25;;;3.60;;
47625;SDS011;33342;45.574;9.252;2023-05-15T12:56:49;5.93;;;4.07;;
47625;SDS011;33342;45.574;9.252;2023-05-15T12:59:17;11.25;;;4.50;;
47625;SDS011;33342;45.574;9.252;2023-05-15T13:01:44;8.15;;;4.13;;
47625;SDS011;33342;45.574;9.252;2023-05-15T13:04:11;5.90;;;3.85;;
47625;SDS011;33342;45.574;9.252;2023-05-15T13:06:38;8.98;;;3.58;;
47625;SDS011;33342;45.574;9.252;2023-05-15T13:09:12;5.15;;;2.90;;
47625;SDS011;33342;45.574;9.252;2023-05-15T13:11:43;5.85;;;3.00;;
47625;SDS011;33342;45.574;9.252;2023-05-15T13:14:10;6.10;;;4.20;;
47625;SDS011;33342;45.574;9.252;2023-05-15T13:16:44;5.30;;;3.47;;
47625;SDS011;33342;45.574;9.252;2023-05-15T13:19:12;6.60;;;2.97;;
47625;SDS011;33342;45.574;9.252;2023-05-15T13:21:40;6.57;;;4.38;;
47625;SDS011;33342;45.574;9.252;2023-05-15T13:24:06;6.22;;;3.90;;
47625;SDS011;33342;45.574;9.252;2023-05-15T13:26:36;5.82;;;3.80;;
47625;SDS011;33342;45.574;9.252;2023-05-15T13:29:03;5.72;;;3.83;;
47625;SDS011;33342;45.574;9.252;2023-05-15T13:31:30;6.15;;;3.63;;
47625;SDS011;33342;45.574;9.252;2023-05-15T13:33:57;5.60;;;3.30;;
47625;SDS011;33342;45.574;9.252;2023-05-15T13:36:24;7.35;;;3.70;;
47625;SDS011;33342;45.574;9.252;2023-05-15T13:38:51;6.43;;;3.65;;
47625;SDS011;33342;45.574;9.252;2023-05-15T13:41:18;7.22;;;3.95;;
47625;SDS011;33342;45.574;9.252;2023-05-15T13:43:46;6.07;;;4.18;;
47625;SDS011;33342;45.574;9.252;2023-05-15T13:46:14;31.05;;;25.70;;
47625;SDS011;33342;45.574;9.252;2023-05-15T13:48:41;16.40;;;12.85;;
47625;SDS011;33342;45.574;9.252;2023-05-15T13:51:08;6.10;;;3.38;;
47625;SDS011;33342;45.574;9.252;2023-05-15T13:53:35;4.75;;;2.80;;
47625;SDS011;33342;45.574;9.252;2023-05-15T13:56:02;4.32;;;2.10;;
47625;SDS011;33342;45.574;9.252;2023-05-15T13:58:29;4.57;;;2.40;;
47625;SDS011;33342;45.574;9.252;2023-05-15T14:00:56;5.43;;;2.80;;
47625;SDS011;33342;45.574;9.252;2023-05-15T14:03:23;4.75;;;2.53;;
47625;SDS011;33342;45.574;9.252;2023-05-15T14:05:51;5.32;;;2.92;;
47625;SDS011;33342;45.574;9.252;2023-05-15T14:08:18;5.25;;;2.40;;
47625;SDS011;33342;45.574;9.252;2023-05-15T14:10:45;4.43;;;2.35;;
47625;SDS011;33342;45.574;9.252;2023-05-15T14:13:12;4.95;;;1.95;;
47625;SDS011;33342;45.574;9.252;2023-05-15T14:15:39;4.18;;;1.90;;
47625;SDS011;33342;45.574;9.252;2023-05-15T14:18:06;4.88;;;1.98;;
47625;SDS011;33342;45.574;9.252;2023-05-15T14:20:33;5.22;;;2.63;;
47625;SDS011;33342;45.574;9.252;2023-05-15T14:23:00;3.92;;;1.90;;
47625;SDS011;33342;45.574;9.252;2023-05-15T14:25:27;4.40;;;1.77;;
47625;SDS011;33342;45.574;9.252;2023-05-15T14:27:54;2.08;;;1.27;;
47625;SDS011;33342;45.574;9.252;2023-05-15T14:30:21;3.22;;;1.55;;
47625;SDS011;33342;45.574;9.252;2023-05-15T14:32:48;2.90;;;1.42;;
47625;SDS011;33342;45.574;9.252;2023-05-15T14:35:15;2.55;;;1.35;;
47625;SDS011;33342;45.574;9.252;2023-05-15T14:37:42;5.57;;;2.20;;
47625;SDS011;33342;45.574;9.252;2023-05-15T14:40:10;3.17;;;1.60;;
47625;SDS011;33342;45.574;9.252;2023-05-15T14:42:38;4.22;;;1.52;;
47625;SDS011;33342;45.574;9.252;2023-05-15T14:45:05;6.68;;;4.60;;
47625;SDS011;33342;45.574;9.252;2023-05-15T14:47:33;3.88;;;2.17;;
47625;SDS011;33342;45.574;9.252;2023-05-15T14:50:00;4.35;;;2.22;;
47625;SDS011;33342;45.574;9.252;2023-05-15T14:52:27;6.30;;;2.22;;
47625;SDS011;33342;45.574;9.252;2023-05-15T14:54:54;3.65;;;1.80;;
47625;SDS011;33342;45.574;9.252;2023-05-15T14:57:35;3.80;;;1.42;;
47625;SDS011;33342;45.574;9.252;2023-05-15T15:00:03;2.15;;;1.13;;
47625;SDS011;33342;45.574;9.252;2023-05-15T15:02:32;2.35;;;1.30;;
47625;SDS011;33342;45.574;9.252;2023-05-15T15:04:59;3.40;;;1.60;;
47625;SDS011;33342;45.574;9.252;2023-05-15T15:07:27;4.13;;;1.80;;
47625;SDS011;33342;45.574;9.252;2023-05-15T15:09:56;4.30;;;2.00;;
47625;SDS011;33342;45.574;9.252;2023-05-15T15:12:23;4.15;;;1.83;;
47625;SDS011;33342;45.574;9.252;2023-05-15T15:14:50;4.40;;;1.50;;
47625;SDS011;33342;45.574;9.252;2023-05-15T15:17:17;4.68;;;1.60;;
47625;SDS011;33342;45.574;9.252;2023-05-15T15:19:44;2.35;;;1.30;;
47625;SDS011;33342;45.574;9.252;2023-05-15T15:22:11;3.83;;;1.52;;